sensor_id;sensor_type;location;lat;lon;timestamp;temperature;humidity
48328;DHT22;34136;51.022;7.082;2022-08-19T00:02:42;19.20;6.60
48328;DHT22;34136;51.022;7.082;2022-08-19T00:05:28;19.20;6.70
48328;DHT22;34136;51.022;7.082;2022-08-19T00:08:15;19.30;6.40
48328;DHT22;34136;51.022;7.082;2022-08-19T00:11:01;19.30;6.40
48328;DHT22;34136;51.022;7.082;2022-08-19T00:13:47;19.30;6.30
48328;DHT22;34136;51.022;7.082;2022-08-19T00:16:33;19.30;6.60
48328;DHT22;34136;51.022;7.082;2022-08-19T00:19:20;19.30;5.90
48328;DHT22;34136;51.022;7.082;2022-08-19T00:22:06;19.30;6.20
48328;DHT22;34136;51.022;7.082;2022-08-19T00:24:53;19.10;7.20
48328;DHT22;34136;51.022;7.082;2022-08-19T00:27:39;18.90;8.10
48328;DHT22;34136;51.022;7.082;2022-08-19T00:30:26;19.00;7.50
48328;DHT22;34136;51.022;7.082;2022-08-19T00:33:13;18.80;8.30
48328;DHT22;34136;51.022;7.082;2022-08-19T00:36:00;18.90;7.80
48328;DHT22;34136;51.022;7.082;2022-08-19T00:38:47;18.80;7.80
48328;DHT22;34136;51.022;7.082;2022-08-19T00:41:33;18.80;8.20
48328;DHT22;34136;51.022;7.082;2022-08-19T00:44:26;18.80;8.30
48328;DHT22;34136;51.022;7.082;2022-08-19T00:47:13;18.80;8.60
48328;DHT22;34136;51.022;7.082;2022-08-19T00:49:59;18.60;9.30
48328;DHT22;34136;51.022;7.082;2022-08-19T00:52:49;18.70;9.50
48328;DHT22;34136;51.022;7.082;2022-08-19T00:55:37;18.60;9.70
48328;DHT22;34136;51.022;7.082;2022-08-19T00:58:28;18.60;9.20
48328;DHT22;34136;51.022;7.082;2022-08-19T01:01:15;18.70;8.90
48328;DHT22;34136;51.022;7.082;2022-08-19T01:04:01;18.70;8.70
48328;DHT22;34136;51.022;7.082;2022-08-19T01:06:47;18.60;9.10
48328;DHT22;34136;51.022;7.082;2022-08-19T01:09:34;18.60;9.20
48328;DHT22;34136;51.022;7.082;2022-08-19T01:12:20;18.60;8.50
48328;DHT22;34136;51.022;7.082;2022-08-19T01:15:09;18.70;8.70
48328;DHT22;34136;51.022;7.082;2022-08-19T01:18:00;18.60;9.30
48328;DHT22;34136;51.022;7.082;2022-08-19T01:20:47;18.60;9.40
48328;DHT22;34136;51.022;7.082;2022-08-19T01:23:34;18.60;9.40
48328;DHT22;34136;51.022;7.082;2022-08-19T01:26:23;18.60;9.80
48328;DHT22;34136;51.022;7.082;2022-08-19T01:29:10;18.60;9.80
48328;DHT22;34136;51.022;7.082;2022-08-19T01:31:57;18.60;9.20
48328;DHT22;34136;51.022;7.082;2022-08-19T01:34:44;18.60;8.90
48328;DHT22;34136;51.022;7.082;2022-08-19T01:37:40;18.70;8.80
48328;DHT22;34136;51.022;7.082;2022-08-19T01:40:30;18.60;8.90
48328;DHT22;34136;51.022;7.082;2022-08-19T01:43:16;18.60;9.30
48328;DHT22;34136;51.022;7.082;2022-08-19T01:46:03;18.60;8.30
48328;DHT22;34136;51.022;7.082;2022-08-19T01:48:49;18.20;10.50
48328;DHT22;34136;51.022;7.082;2022-08-19T01:51:37;18.20;10.40
48328;DHT22;34136;51.022;7.082;2022-08-19T01:54:24;18.20;10.00
48328;DHT22;34136;51.022;7.082;2022-08-19T01:57:12;18.20;10.50
48328;DHT22;34136;51.022;7.082;2022-08-19T02:00:00;18.10;10.80
48328;DHT22;34136;51.022;7.082;2022-08-19T02:02:57;18.20;10.20
48328;DHT22;34136;51.022;7.082;2022-08-19T02:05:44;18.30;10.40
48328;DHT22;34136;51.022;7.082;2022-08-19T02:08:32;18.20;10.20
48328;DHT22;34136;51.022;7.082;2022-08-19T02:11:22;18.20;10.40
48328;DHT22;34136;51.022;7.082;2022-08-19T02:14:09;18.10;10.90
48328;DHT22;34136;51.022;7.082;2022-08-19T02:16:55;18.10;11.10
48328;DHT22;34136;51.022;7.082;2022-08-19T02:19:41;18.10;10.60
48328;DHT22;34136;51.022;7.082;2022-08-19T02:22:28;18.00;11.20
48328;DHT22;34136;51.022;7.082;2022-08-19T02:25:14;18.00;11.60
48328;DHT22;34136;51.022;7.082;2022-08-19T02:28:00;17.80;12.20
48328;DHT22;34136;51.022;7.082;2022-08-19T02:30:47;17.80;11.80
48328;DHT22;34136;51.022;7.082;2022-08-19T02:33:33;17.80;12.40
48328;DHT22;34136;51.022;7.082;2022-08-19T02:36:20;17.70;13.00
48328;DHT22;34136;51.022;7.082;2022-08-19T02:39:06;17.60;13.70
48328;DHT22;34136;51.022;7.082;2022-08-19T02:41:52;17.50;13.80
48328;DHT22;34136;51.022;7.082;2022-08-19T02:44:38;17.50;14.10
48328;DHT22;34136;51.022;7.082;2022-08-19T02:47:25;17.50;13.70
48328;DHT22;34136;51.022;7.082;2022-08-19T02:50:11;17.50;14.30
48328;DHT22;34136;51.022;7.082;2022-08-19T02:52:58;17.60;13.40
48328;DHT22;34136;51.022;7.082;2022-08-19T02:55:48;17.60;13.10
48328;DHT22;34136;51.022;7.082;2022-08-19T02:58:34;17.70;13.50
48328;DHT22;34136;51.022;7.082;2022-08-19T03:01:26;17.70;13.10
48328;DHT22;34136;51.022;7.082;2022-08-19T03:04:14;17.70;13.70
48328;DHT22;34136;51.022;7.082;2022-08-19T03:07:00;17.70;12.80
48328;DHT22;34136;51.022;7.082;2022-08-19T03:09:46;17.60;13.10
48328;DHT22;34136;51.022;7.082;2022-08-19T03:12:36;17.50;13.90
48328;DHT22;34136;51.022;7.082;2022-08-19T03:15:23;17.50;13.20
48328;DHT22;34136;51.022;7.082;2022-08-19T03:18:10;17.50;13.40
48328;DHT22;34136;51.022;7.082;2022-08-19T03:20:57;17.50;13.00
48328;DHT22;34136;51.022;7.082;2022-08-19T03:23:43;17.50;13.10
48328;DHT22;34136;51.022;7.082;2022-08-19T03:26:30;17.50;13.00
48328;DHT22;34136;51.022;7.082;2022-08-19T04:36:47;17.20;13.60
48328;DHT22;34136;51.022;7.082;2022-08-19T04:39:32;17.20;13.50
48328;DHT22;34136;51.022;7.082;2022-08-19T04:42:18;17.30;13.50
48328;DHT22;34136;51.022;7.082;2022-08-19T04:45:08;17.30;13.10
48328;DHT22;34136;51.022;7.082;2022-08-19T04:48:17;17.30;13.30
48328;DHT22;34136;51.022;7.082;2022-08-19T04:51:07;17.20;13.40
48328;DHT22;34136;51.022;7.082;2022-08-19T04:53:54;17.20;14.10
48328;DHT22;34136;51.022;7.082;2022-08-19T04:56:40;17.00;14.40
48328;DHT22;34136;51.022;7.082;2022-08-19T04:59:27;17.00;14.70
48328;DHT22;34136;51.022;7.082;2022-08-19T05:02:13;17.00;15.20
48328;DHT22;34136;51.022;7.082;2022-08-19T05:04:59;17.00;15.70
48328;DHT22;34136;51.022;7.082;2022-08-19T05:07:46;17.10;14.40
48328;DHT22;34136;51.022;7.082;2022-08-19T05:10:35;17.30;14.30
48328;DHT22;34136;51.022;7.082;2022-08-19T05:13:22;17.30;14.00
48328;DHT22;34136;51.022;7.082;2022-08-19T05:16:09;17.30;14.20
48328;DHT22;34136;51.022;7.082;2022-08-19T05:18:56;17.40;13.90
48328;DHT22;34136;51.022;7.082;2022-08-19T05:21:42;17.40;14.30
48328;DHT22;34136;51.022;7.082;2022-08-19T05:24:30;17.50;13.70
48328;DHT22;34136;51.022;7.082;2022-08-19T05:27:17;17.50;13.70
48328;DHT22;34136;51.022;7.082;2022-08-19T05:30:04;17.50;14.00
48328;DHT22;34136;51.022;7.082;2022-08-19T05:32:50;17.50;13.80
48328;DHT22;34136;51.022;7.082;2022-08-19T05:35:38;17.40;13.80
48328;DHT22;34136;51.022;7.082;2022-08-19T05:38:24;17.50;13.60
48328;DHT22;34136;51.022;7.082;2022-08-19T05:41:12;17.40;13.80
48328;DHT22;34136;51.022;7.082;2022-08-19T05:44:03;17.30;14.50
48328;DHT22;34136;51.022;7.082;2022-08-19T05:46:52;17.40;14.00
48328;DHT22;34136;51.022;7.082;2022-08-19T05:49:39;17.50;13.70
48328;DHT22;34136;51.022;7.082;2022-08-19T05:52:26;17.40;14.20
48328;DHT22;34136;51.022;7.082;2022-08-19T05:55:12;17.50;13.90
48328;DHT22;34136;51.022;7.082;2022-08-19T05:57:58;17.60;13.30
48328;DHT22;34136;51.022;7.082;2022-08-19T06:00:44;17.60;13.20
48328;DHT22;34136;51.022;7.082;2022-08-19T06:03:33;17.60;13.40
48328;DHT22;34136;51.022;7.082;2022-08-19T06:06:20;17.70;13.10
48328;DHT22;34136;51.022;7.082;2022-08-19T06:09:07;17.80;12.20
48328;DHT22;34136;51.022;7.082;2022-08-19T06:11:56;17.80;12.90
48328;DHT22;34136;51.022;7.082;2022-08-19T06:14:42;17.90;12.80
48328;DHT22;34136;51.022;7.082;2022-08-19T06:17:29;17.80;12.80
48328;DHT22;34136;51.022;7.082;2022-08-19T06:20:15;17.80;13.20
48328;DHT22;34136;51.022;7.082;2022-08-19T06:23:02;17.90;12.20
48328;DHT22;34136;51.022;7.082;2022-08-19T06:25:48;18.00;12.40
48328;DHT22;34136;51.022;7.082;2022-08-19T06:28:34;18.10;12.40
48328;DHT22;34136;51.022;7.082;2022-08-19T06:31:24;18.10;12.90
48328;DHT22;34136;51.022;7.082;2022-08-19T06:34:12;18.10;13.10
48328;DHT22;34136;51.022;7.082;2022-08-19T06:37:00;18.40;12.60
48328;DHT22;34136;51.022;7.082;2022-08-19T06:39:46;18.50;12.40
48328;DHT22;34136;51.022;7.082;2022-08-19T06:42:32;18.60;12.30
48328;DHT22;34136;51.022;7.082;2022-08-19T06:45:18;18.80;12.00
48328;DHT22;34136;51.022;7.082;2022-08-19T06:48:04;18.80;12.00
48328;DHT22;34136;51.022;7.082;2022-08-19T06:50:50;19.00;12.00
48328;DHT22;34136;51.022;7.082;2022-08-19T06:53:36;19.20;11.40
48328;DHT22;34136;51.022;7.082;2022-08-19T06:56:26;19.50;10.70
48328;DHT22;34136;51.022;7.082;2022-08-19T06:59:18;19.70;10.40
48328;DHT22;34136;51.022;7.082;2022-08-19T07:02:05;19.90;10.20
48328;DHT22;34136;51.022;7.082;2022-08-19T07:04:52;20.00;9.50
48328;DHT22;34136;51.022;7.082;2022-08-19T07:07:38;20.20;9.70
48328;DHT22;34136;51.022;7.082;2022-08-19T07:10:25;20.30;10.30
48328;DHT22;34136;51.022;7.082;2022-08-19T07:13:11;20.50;10.20
48328;DHT22;34136;51.022;7.082;2022-08-19T07:15:57;20.70;10.20
48328;DHT22;34136;51.022;7.082;2022-08-19T07:18:43;21.00;9.80
48328;DHT22;34136;51.022;7.082;2022-08-19T07:21:29;21.10;9.00
48328;DHT22;34136;51.022;7.082;2022-08-19T07:24:15;21.40;8.90
48328;DHT22;34136;51.022;7.082;2022-08-19T07:27:03;21.40;8.50
48328;DHT22;34136;51.022;7.082;2022-08-19T07:29:53;21.50;8.50
48328;DHT22;34136;51.022;7.082;2022-08-19T07:32:40;21.70;7.00
48328;DHT22;34136;51.022;7.082;2022-08-19T07:35:26;21.80;6.20
48328;DHT22;34136;51.022;7.082;2022-08-19T07:38:12;21.80;6.00
48328;DHT22;34136;51.022;7.082;2022-08-19T07:41:00;22.00;5.70
48328;DHT22;34136;51.022;7.082;2022-08-19T07:43:47;22.00;5.60
48328;DHT22;34136;51.022;7.082;2022-08-19T07:46:36;22.20;4.00
48328;DHT22;34136;51.022;7.082;2022-08-19T07:49:23;22.30;3.80
48328;DHT22;34136;51.022;7.082;2022-08-19T07:52:09;22.40;3.30
48328;DHT22;34136;51.022;7.082;2022-08-19T07:54:55;22.40;3.40
48328;DHT22;34136;51.022;7.082;2022-08-19T07:57:41;22.50;3.50
48328;DHT22;34136;51.022;7.082;2022-08-19T08:00:27;22.70;2.40
48328;DHT22;34136;51.022;7.082;2022-08-19T08:03:16;22.80;2.70
48328;DHT22;34136;51.022;7.082;2022-08-19T08:06:03;23.00;1.30
48328;DHT22;34136;51.022;7.082;2022-08-19T08:08:49;23.10;1.00
48328;DHT22;34136;51.022;7.082;2022-08-19T08:11:35;23.20;1.00
48328;DHT22;34136;51.022;7.082;2022-08-19T08:14:25;22.80;1.40
48328;DHT22;34136;51.022;7.082;2022-08-19T08:17:12;23.00;1.00
48328;DHT22;34136;51.022;7.082;2022-08-19T08:19:58;22.90;1.00
48328;DHT22;34136;51.022;7.082;2022-08-19T08:22:48;23.20;1.00
48328;DHT22;34136;51.022;7.082;2022-08-19T08:25:35;23.30;1.00
48328;DHT22;34136;51.022;7.082;2022-08-19T08:28:22;23.40;1.00
48328;DHT22;34136;51.022;7.082;2022-08-19T08:31:09;23.60;1.00
48328;DHT22;34136;51.022;7.082;2022-08-19T08:33:55;23.70;1.00
48328;DHT22;34136;51.022;7.082;2022-08-19T08:36:43;23.60;1.00
48328;DHT22;34136;51.022;7.082;2022-08-19T08:39:30;23.50;1.00
48328;DHT22;34136;51.022;7.082;2022-08-19T08:42:20;23.70;1.00
48328;DHT22;34136;51.022;7.082;2022-08-19T08:45:17;23.70;1.00
48328;DHT22;34136;51.022;7.082;2022-08-19T08:48:25;23.50;1.00
48328;DHT22;34136;51.022;7.082;2022-08-19T08:51:18;23.40;1.00
48328;DHT22;34136;51.022;7.082;2022-08-19T08:54:17;23.30;1.00
48328;DHT22;34136;51.022;7.082;2022-08-19T08:57:14;23.50;1.00
48328;DHT22;34136;51.022;7.082;2022-08-19T09:00:05;23.70;1.00
48328;DHT22;34136;51.022;7.082;2022-08-19T09:02:55;23.70;1.00
48328;DHT22;34136;51.022;7.082;2022-08-19T09:15:48;24.60;1.00
48328;DHT22;34136;51.022;7.082;2022-08-19T09:19:02;24.50;1.00
48328;DHT22;34136;51.022;7.082;2022-08-19T09:22:14;24.50;1.00
48328;DHT22;34136;51.022;7.082;2022-08-19T09:25:25;24.60;1.00
48328;DHT22;34136;51.022;7.082;2022-08-19T09:28:11;25.20;1.00
48328;DHT22;34136;51.022;7.082;2022-08-19T10:21:33;26.60;1.00
48328;DHT22;34136;51.022;7.082;2022-08-19T10:24:22;26.30;1.00
48328;DHT22;34136;51.022;7.082;2022-08-19T10:27:10;26.20;1.00
48328;DHT22;34136;51.022;7.082;2022-08-19T10:29:57;26.20;1.00
48328;DHT22;34136;51.022;7.082;2022-08-19T10:32:44;26.30;1.00
48328;DHT22;34136;51.022;7.082;2022-08-19T10:35:33;26.30;1.00
48328;DHT22;34136;51.022;7.082;2022-08-19T10:38:19;26.70;1.00
48328;DHT22;34136;51.022;7.082;2022-08-19T10:41:07;26.60;1.00
48328;DHT22;34136;51.022;7.082;2022-08-19T10:43:55;26.50;1.00
48328;DHT22;34136;51.022;7.082;2022-08-19T10:46:43;26.70;1.00
48328;DHT22;34136;51.022;7.082;2022-08-19T10:49:48;26.90;1.00
48328;DHT22;34136;51.022;7.082;2022-08-19T10:52:35;27.00;1.00
48328;DHT22;34136;51.022;7.082;2022-08-19T10:55:33;27.30;1.00
48328;DHT22;34136;51.022;7.082;2022-08-19T10:58:22;27.20;1.00
48328;DHT22;34136;51.022;7.082;2022-08-19T11:01:08;27.00;1.00
48328;DHT22;34136;51.022;7.082;2022-08-19T11:03:54;27.10;1.00
48328;DHT22;34136;51.022;7.082;2022-08-19T17:12:34;27.30;1.00
48328;DHT22;34136;51.022;7.082;2022-08-19T17:15:20;27.10;1.00
48328;DHT22;34136;51.022;7.082;2022-08-19T17:18:07;27.00;1.00
48328;DHT22;34136;51.022;7.082;2022-08-19T17:20:54;26.80;1.00
48328;DHT22;34136;51.022;7.082;2022-08-19T17:23:40;26.70;1.00
48328;DHT22;34136;51.022;7.082;2022-08-19T17:26:27;26.70;1.00
48328;DHT22;34136;51.022;7.082;2022-08-19T17:29:13;26.70;1.00
48328;DHT22;34136;51.022;7.082;2022-08-19T17:31:59;26.60;1.00
48328;DHT22;34136;51.022;7.082;2022-08-19T17:34:45;26.60;1.00
48328;DHT22;34136;51.022;7.082;2022-08-19T17:37:32;26.60;1.00
48328;DHT22;34136;51.022;7.082;2022-08-19T17:40:20;26.60;1.00
48328;DHT22;34136;51.022;7.082;2022-08-19T17:43:07;26.60;1.00
48328;DHT22;34136;51.022;7.082;2022-08-19T17:45:53;26.40;1.00
48328;DHT22;34136;51.022;7.082;2022-08-19T17:48:39;26.40;1.00
48328;DHT22;34136;51.022;7.082;2022-08-19T17:54:18;26.50;1.00
48328;DHT22;34136;51.022;7.082;2022-08-19T17:57:04;26.30;1.00
48328;DHT22;34136;51.022;7.082;2022-08-19T17:59:51;26.20;1.00
48328;DHT22;34136;51.022;7.082;2022-08-19T18:02:49;26.10;1.00
48328;DHT22;34136;51.022;7.082;2022-08-19T18:05:41;26.10;1.00
48328;DHT22;34136;51.022;7.082;2022-08-19T18:08:27;26.10;1.00
48328;DHT22;34136;51.022;7.082;2022-08-19T18:11:13;26.00;1.00
48328;DHT22;34136;51.022;7.082;2022-08-19T18:14:00;26.10;1.00
48328;DHT22;34136;51.022;7.082;2022-08-19T18:16:46;26.00;1.00
48328;DHT22;34136;51.022;7.082;2022-08-19T18:19:33;25.80;1.00
48328;DHT22;34136;51.022;7.082;2022-08-19T18:25:12;25.70;1.00
48328;DHT22;34136;51.022;7.082;2022-08-19T18:27:59;25.60;1.00
48328;DHT22;34136;51.022;7.082;2022-08-19T18:30:45;25.60;1.00
48328;DHT22;34136;51.022;7.082;2022-08-19T18:33:32;25.50;1.00
48328;DHT22;34136;51.022;7.082;2022-08-19T18:36:18;25.50;1.00
48328;DHT22;34136;51.022;7.082;2022-08-19T18:39:05;25.50;1.00
48328;DHT22;34136;51.022;7.082;2022-08-19T18:41:51;25.30;1.00
48328;DHT22;34136;51.022;7.082;2022-08-19T18:44:37;25.30;1.00
48328;DHT22;34136;51.022;7.082;2022-08-19T18:47:38;25.30;1.00
48328;DHT22;34136;51.022;7.082;2022-08-19T18:50:24;25.30;1.00
48328;DHT22;34136;51.022;7.082;2022-08-19T18:53:10;25.30;1.00
48328;DHT22;34136;51.022;7.082;2022-08-19T18:55:59;25.20;1.00
48328;DHT22;34136;51.022;7.082;2022-08-19T18:58:47;25.20;1.00
48328;DHT22;34136;51.022;7.082;2022-08-19T19:01:36;25.20;1.00
48328;DHT22;34136;51.022;7.082;2022-08-19T19:04:30;25.30;1.00
48328;DHT22;34136;51.022;7.082;2022-08-19T19:07:17;25.30;1.00
48328;DHT22;34136;51.022;7.082;2022-08-19T19:10:04;25.10;1.00
48328;DHT22;34136;51.022;7.082;2022-08-19T19:12:50;25.20;1.00
48328;DHT22;34136;51.022;7.082;2022-08-19T19:15:37;25.30;1.00
48328;DHT22;34136;51.022;7.082;2022-08-19T19:18:23;25.30;1.00
48328;DHT22;34136;51.022;7.082;2022-08-19T19:21:10;25.30;1.00
48328;DHT22;34136;51.022;7.082;2022-08-19T19:23:56;25.10;1.00
48328;DHT22;34136;51.022;7.082;2022-08-19T19:26:42;25.10;1.00
48328;DHT22;34136;51.022;7.082;2022-08-19T19:29:32;25.10;1.00
48328;DHT22;34136;51.022;7.082;2022-08-19T19:32:22;25.10;1.00
48328;DHT22;34136;51.022;7.082;2022-08-19T19:35:09;24.90;1.00
48328;DHT22;34136;51.022;7.082;2022-08-19T19:37:57;24.80;1.00
48328;DHT22;34136;51.022;7.082;2022-08-19T19:40:44;24.80;1.00
48328;DHT22;34136;51.022;7.082;2022-08-19T19:43:30;24.70;1.00
48328;DHT22;34136;51.022;7.082;2022-08-19T19:46:16;24.70;1.00
48328;DHT22;34136;51.022;7.082;2022-08-19T19:49:03;24.70;1.00
48328;DHT22;34136;51.022;7.082;2022-08-19T19:51:49;24.70;1.00
48328;DHT22;34136;51.022;7.082;2022-08-19T19:54:35;24.70;1.00
48328;DHT22;34136;51.022;7.082;2022-08-19T19:57:21;24.80;1.00
48328;DHT22;34136;51.022;7.082;2022-08-19T20:00:08;24.80;1.00
48328;DHT22;34136;51.022;7.082;2022-08-19T20:02:54;24.90;1.00
48328;DHT22;34136;51.022;7.082;2022-08-19T20:05:40;24.90;1.00
48328;DHT22;34136;51.022;7.082;2022-08-19T20:08:27;24.90;1.00
48328;DHT22;34136;51.022;7.082;2022-08-19T20:11:34;24.80;1.00
48328;DHT22;34136;51.022;7.082;2022-08-19T20:14:31;24.70;1.00
48328;DHT22;34136;51.022;7.082;2022-08-19T20:17:17;24.70;1.00
48328;DHT22;34136;51.022;7.082;2022-08-19T20:20:04;24.60;1.00
48328;DHT22;34136;51.022;7.082;2022-08-19T20:22:50;24.50;1.00
48328;DHT22;34136;51.022;7.082;2022-08-19T20:25:38;24.40;1.00
48328;DHT22;34136;51.022;7.082;2022-08-19T20:28:24;24.30;1.00
48328;DHT22;34136;51.022;7.082;2022-08-19T20:31:10;24.30;1.00
48328;DHT22;34136;51.022;7.082;2022-08-19T20:33:56;24.20;1.00
48328;DHT22;34136;51.022;7.082;2022-08-19T20:36:43;24.00;1.00
48328;DHT22;34136;51.022;7.082;2022-08-19T20:39:29;24.10;1.00
48328;DHT22;34136;51.022;7.082;2022-08-19T20:42:16;23.90;1.00
48328;DHT22;34136;51.022;7.082;2022-08-19T20:45:03;23.90;1.00
48328;DHT22;34136;51.022;7.082;2022-08-19T20:47:49;23.80;1.00
48328;DHT22;34136;51.022;7.082;2022-08-19T20:50:37;23.80;1.00
48328;DHT22;34136;51.022;7.082;2022-08-19T20:53:24;23.70;1.00
48328;DHT22;34136;51.022;7.082;2022-08-19T20:56:10;23.70;1.00
48328;DHT22;34136;51.022;7.082;2022-08-19T20:58:56;23.60;1.00
48328;DHT22;34136;51.022;7.082;2022-08-19T21:01:43;23.60;1.00
48328;DHT22;34136;51.022;7.082;2022-08-19T21:04:30;23.40;1.00
48328;DHT22;34136;51.022;7.082;2022-08-19T21:07:16;23.30;1.00
48328;DHT22;34136;51.022;7.082;2022-08-19T21:10:03;23.40;1.00
48328;DHT22;34136;51.022;7.082;2022-08-19T21:12:49;23.40;1.00
48328;DHT22;34136;51.022;7.082;2022-08-19T21:15:36;23.30;1.00
48328;DHT22;34136;51.022;7.082;2022-08-19T21:18:24;23.20;1.00
48328;DHT22;34136;51.022;7.082;2022-08-19T21:21:11;23.20;1.00
48328;DHT22;34136;51.022;7.082;2022-08-19T21:23:57;23.20;1.00
48328;DHT22;34136;51.022;7.082;2022-08-19T21:26:43;23.20;1.00
48328;DHT22;34136;51.022;7.082;2022-08-19T21:29:29;23.20;1.00
48328;DHT22;34136;51.022;7.082;2022-08-19T21:32:17;23.00;1.70
48328;DHT22;34136;51.022;7.082;2022-08-19T21:35:04;23.00;1.80
48328;DHT22;34136;51.022;7.082;2022-08-19T21:37:50;22.90;2.50
48328;DHT22;34136;51.022;7.082;2022-08-19T21:40:37;22.90;2.80
48328;DHT22;34136;51.022;7.082;2022-08-19T21:43:23;22.80;3.50
48328;DHT22;34136;51.022;7.082;2022-08-19T21:46:09;22.90;2.80
48328;DHT22;34136;51.022;7.082;2022-08-19T21:48:55;23.00;2.50
48328;DHT22;34136;51.022;7.082;2022-08-19T21:51:41;22.90;2.80
48328;DHT22;34136;51.022;7.082;2022-08-19T21:54:30;22.80;3.20
48328;DHT22;34136;51.022;7.082;2022-08-19T21:57:16;22.70;3.70
48328;DHT22;34136;51.022;7.082;2022-08-19T22:00:16;22.70;3.30
48328;DHT22;34136;51.022;7.082;2022-08-19T22:03:03;22.60;4.20
48328;DHT22;34136;51.022;7.082;2022-08-19T22:05:49;22.50;5.00
48328;DHT22;34136;51.022;7.082;2022-08-19T22:08:36;22.40;5.30
48328;DHT22;34136;51.022;7.082;2022-08-19T22:11:23;22.40;5.20
48328;DHT22;34136;51.022;7.082;2022-08-19T22:14:10;22.40;5.30
48328;DHT22;34136;51.022;7.082;2022-08-19T22:16:56;22.50;5.10
48328;DHT22;34136;51.022;7.082;2022-08-19T22:19:42;22.60;4.70
48328;DHT22;34136;51.022;7.082;2022-08-19T22:22:31;22.60;4.70
48328;DHT22;34136;51.022;7.082;2022-08-19T22:25:21;22.70;4.40
48328;DHT22;34136;51.022;7.082;2022-08-19T22:28:10;22.60;4.90
48328;DHT22;34136;51.022;7.082;2022-08-19T22:30:57;22.50;5.30
48328;DHT22;34136;51.022;7.082;2022-08-19T22:33:43;22.50;5.40
48328;DHT22;34136;51.022;7.082;2022-08-19T22:36:29;22.40;6.00
48328;DHT22;34136;51.022;7.082;2022-08-19T22:39:15;22.40;6.00
48328;DHT22;34136;51.022;7.082;2022-08-19T22:42:02;22.40;6.00
48328;DHT22;34136;51.022;7.082;2022-08-19T22:44:48;22.50;6.30
48328;DHT22;34136;51.022;7.082;2022-08-19T22:47:35;22.40;6.40
48328;DHT22;34136;51.022;7.082;2022-08-19T22:50:22;22.40;7.10
48328;DHT22;34136;51.022;7.082;2022-08-19T22:53:09;22.40;6.90
48328;DHT22;34136;51.022;7.082;2022-08-19T22:55:56;22.30;7.20
48328;DHT22;34136;51.022;7.082;2022-08-19T22:58:42;22.30;7.60
48328;DHT22;34136;51.022;7.082;2022-08-19T23:01:28;22.30;7.80
48328;DHT22;34136;51.022;7.082;2022-08-19T23:04:14;22.30;7.60
48328;DHT22;34136;51.022;7.082;2022-08-19T23:07:00;22.30;7.50
48328;DHT22;34136;51.022;7.082;2022-08-19T23:09:47;22.20;8.10
48328;DHT22;34136;51.022;7.082;2022-08-19T23:12:40;22.20;7.80
48328;DHT22;34136;51.022;7.082;2022-08-19T23:15:29;22.20;7.90
48328;DHT22;34136;51.022;7.082;2022-08-19T23:18:16;22.20;8.20
48328;DHT22;34136;51.022;7.082;2022-08-19T23:21:02;22.20;8.40
48328;DHT22;34136;51.022;7.082;2022-08-19T23:23:49;22.20;8.20
48328;DHT22;34136;51.022;7.082;2022-08-19T23:26:35;22.20;8.30
48328;DHT22;34136;51.022;7.082;2022-08-19T23:29:21;22.10;8.50
48328;DHT22;34136;51.022;7.082;2022-08-19T23:32:08;22.10;8.90
48328;DHT22;34136;51.022;7.082;2022-08-19T23:34:55;22.10;8.80
48328;DHT22;34136;51.022;7.082;2022-08-19T23:37:41;22.20;8.30
48328;DHT22;34136;51.022;7.082;2022-08-19T23:40:27;22.10;8.60
48328;DHT22;34136;51.022;7.082;2022-08-19T23:43:14;22.10;8.60
48328;DHT22;34136;51.022;7.082;2022-08-19T23:46:02;22.10;8.50
48328;DHT22;34136;51.022;7.082;2022-08-19T23:48:48;22.10;8.50
48328;DHT22;34136;51.022;7.082;2022-08-19T23:51:34;22.00;9.10
48328;DHT22;34136;51.022;7.082;2022-08-19T23:54:21;22.00;9.10
48328;DHT22;34136;51.022;7.082;2022-08-19T23:57:08;22.00;8.80
48328;DHT22;34136;51.022;7.082;2022-08-19T23:59:54;22.00;9.00
